sensor_id;sensor_type;location;lat;lon;timestamp;temperature;humidity
4429;DHT22;2227;47.810;8.810;2023-02-28T04:45:48;0.50;99.90
4429;DHT22;2227;47.810;8.810;2023-02-28T04:48:15;0.60;99.90
4429;DHT22;2227;47.810;8.810;2023-02-28T04:50:42;0.60;99.90
4429;DHT22;2227;47.810;8.810;2023-02-28T04:53:08;0.70;99.90
4429;DHT22;2227;47.810;8.810;2023-02-28T04:55:35;0.70;99.90
4429;DHT22;2227;47.810;8.810;2023-02-28T04:58:01;0.80;99.90
4429;DHT22;2227;47.810;8.810;2023-02-28T05:00:28;0.80;99.90
4429;DHT22;2227;47.810;8.810;2023-02-28T05:02:55;0.60;99.90
4429;DHT22;2227;47.810;8.810;2023-02-28T05:05:22;0.60;99.90
4429;DHT22;2227;47.810;8.810;2023-02-28T05:07:48;0.70;99.90
4429;DHT22;2227;47.810;8.810;2023-02-28T05:10:15;0.70;99.90
4429;DHT22;2227;47.810;8.810;2023-02-28T05:12:42;0.70;99.90
4429;DHT22;2227;47.810;8.810;2023-02-28T05:15:12;0.70;99.90
4429;DHT22;2227;47.810;8.810;2023-02-28T05:17:40;0.70;99.90
4429;DHT22;2227;47.810;8.810;2023-02-28T05:20:07;0.80;99.90
4429;DHT22;2227;47.810;8.810;2023-02-28T05:22:41;0.70;99.90
4429;DHT22;2227;47.810;8.810;2023-02-28T05:25:20;0.70;99.90
4429;DHT22;2227;47.810;8.810;2023-02-28T05:27:48;0.70;99.90
4429;DHT22;2227;47.810;8.810;2023-02-28T05:30:15;0.70;99.90
4429;DHT22;2227;47.810;8.810;2023-02-28T05:32:42;0.70;99.90
4429;DHT22;2227;47.810;8.810;2023-02-28T05:35:12;0.60;99.90
4429;DHT22;2227;47.810;8.810;2023-02-28T05:37:39;0.60;99.90
4429;DHT22;2227;47.810;8.810;2023-02-28T05:40:06;0.70;99.90
4429;DHT22;2227;47.810;8.810;2023-02-28T05:42:37;0.50;99.90
4429;DHT22;2227;47.810;8.810;2023-02-28T05:45:05;0.60;99.90
4429;DHT22;2227;47.810;8.810;2023-02-28T05:47:33;0.50;99.90
4429;DHT22;2227;47.810;8.810;2023-02-28T05:50:00;0.50;99.90
4429;DHT22;2227;47.810;8.810;2023-02-28T05:52:28;0.30;99.90
4429;DHT22;2227;47.810;8.810;2023-02-28T05:54:56;0.50;99.90
4429;DHT22;2227;47.810;8.810;2023-02-28T05:57:23;0.60;99.90
4429;DHT22;2227;47.810;8.810;2023-02-28T05:59:50;0.80;99.90
4429;DHT22;2227;47.810;8.810;2023-02-28T06:02:17;0.60;99.90
4429;DHT22;2227;47.810;8.810;2023-02-28T06:04:44;0.70;99.90
4429;DHT22;2227;47.810;8.810;2023-02-28T06:07:11;0.70;99.90
4429;DHT22;2227;47.810;8.810;2023-02-28T06:09:38;0.90;99.90
4429;DHT22;2227;47.810;8.810;2023-02-28T06:12:06;0.80;99.90
4429;DHT22;2227;47.810;8.810;2023-02-28T06:14:34;0.70;99.90
4429;DHT22;2227;47.810;8.810;2023-02-28T06:17:01;0.90;99.90
4429;DHT22;2227;47.810;8.810;2023-02-28T06:19:28;0.80;99.90
4429;DHT22;2227;47.810;8.810;2023-02-28T06:21:56;0.80;99.90
4429;DHT22;2227;47.810;8.810;2023-02-28T06:24:25;0.80;99.90
4429;DHT22;2227;47.810;8.810;2023-02-28T06:26:54;0.70;99.90
4429;DHT22;2227;47.810;8.810;2023-02-28T06:29:21;0.50;99.90
4429;DHT22;2227;47.810;8.810;2023-02-28T06:31:48;0.50;99.90
4429;DHT22;2227;47.810;8.810;2023-02-28T06:34:15;0.60;99.90
4429;DHT22;2227;47.810;8.810;2023-02-28T06:36:42;0.60;99.90
4429;DHT22;2227;47.810;8.810;2023-02-28T06:39:09;0.60;99.90
4429;DHT22;2227;47.810;8.810;2023-02-28T06:41:36;0.50;99.90
4429;DHT22;2227;47.810;8.810;2023-02-28T06:44:19;0.50;99.90
4429;DHT22;2227;47.810;8.810;2023-02-28T06:46:46;0.70;99.90
4429;DHT22;2227;47.810;8.810;2023-02-28T06:49:13;0.80;99.90
4429;DHT22;2227;47.810;8.810;2023-02-28T06:51:42;0.90;99.90
4429;DHT22;2227;47.810;8.810;2023-02-28T06:54:12;0.90;99.90
4429;DHT22;2227;47.810;8.810;2023-02-28T06:56:39;0.80;99.90
4429;DHT22;2227;47.810;8.810;2023-02-28T06:59:06;0.70;99.90
4429;DHT22;2227;47.810;8.810;2023-02-28T07:01:32;0.70;99.90
4429;DHT22;2227;47.810;8.810;2023-02-28T07:04:00;0.70;99.90
4429;DHT22;2227;47.810;8.810;2023-02-28T07:06:27;0.80;99.90
4429;DHT22;2227;47.810;8.810;2023-02-28T07:08:54;0.60;99.90
4429;DHT22;2227;47.810;8.810;2023-02-28T07:11:23;0.80;99.90
4429;DHT22;2227;47.810;8.810;2023-02-28T07:13:53;0.80;99.90
4429;DHT22;2227;47.810;8.810;2023-02-28T07:16:21;0.80;99.90
4429;DHT22;2227;47.810;8.810;2023-02-28T07:18:48;0.80;99.90
4429;DHT22;2227;47.810;8.810;2023-02-28T07:21:15;0.90;99.90
4429;DHT22;2227;47.810;8.810;2023-02-28T07:23:42;0.90;99.90
4429;DHT22;2227;47.810;8.810;2023-02-28T07:26:14;0.80;99.90
4429;DHT22;2227;47.810;8.810;2023-02-28T07:28:42;0.80;99.90
4429;DHT22;2227;47.810;8.810;2023-02-28T07:31:09;0.90;99.90
4429;DHT22;2227;47.810;8.810;2023-02-28T07:33:36;0.80;99.90
4429;DHT22;2227;47.810;8.810;2023-02-28T07:36:08;0.80;99.90
4429;DHT22;2227;47.810;8.810;2023-02-28T07:38:36;0.90;99.90
4429;DHT22;2227;47.810;8.810;2023-02-28T07:41:04;0.90;99.90
4429;DHT22;2227;47.810;8.810;2023-02-28T07:43:32;1.00;99.90
4429;DHT22;2227;47.810;8.810;2023-02-28T07:46:10;1.00;99.90
4429;DHT22;2227;47.810;8.810;2023-02-28T07:48:38;1.00;99.90
4429;DHT22;2227;47.810;8.810;2023-02-28T07:51:05;0.90;99.90
4429;DHT22;2227;47.810;8.810;2023-02-28T07:53:31;1.00;99.90
4429;DHT22;2227;47.810;8.810;2023-02-28T07:56:00;0.90;99.90
4429;DHT22;2227;47.810;8.810;2023-02-28T07:58:29;1.00;99.90
4429;DHT22;2227;47.810;8.810;2023-02-28T08:00:56;1.00;99.90
4429;DHT22;2227;47.810;8.810;2023-02-28T08:03:24;1.00;99.90
4429;DHT22;2227;47.810;8.810;2023-02-28T08:05:51;0.80;99.90
4429;DHT22;2227;47.810;8.810;2023-02-28T08:08:19;0.90;99.90
4429;DHT22;2227;47.810;8.810;2023-02-28T08:10:45;0.70;99.90
4429;DHT22;2227;47.810;8.810;2023-02-28T08:13:12;0.90;99.90
4429;DHT22;2227;47.810;8.810;2023-02-28T08:15:41;1.20;99.90
4429;DHT22;2227;47.810;8.810;2023-02-28T08:18:09;1.20;99.90
4429;DHT22;2227;47.810;8.810;2023-02-28T08:20:35;1.20;99.90
4429;DHT22;2227;47.810;8.810;2023-02-28T08:23:02;1.20;99.90
4429;DHT22;2227;47.810;8.810;2023-02-28T08:25:29;1.20;99.90
4429;DHT22;2227;47.810;8.810;2023-02-28T08:27:55;1.30;99.90
4429;DHT22;2227;47.810;8.810;2023-02-28T08:30:22;1.20;99.90
4429;DHT22;2227;47.810;8.810;2023-02-28T08:32:49;1.10;99.90
4429;DHT22;2227;47.810;8.810;2023-02-28T08:35:16;1.20;99.90
4429;DHT22;2227;47.810;8.810;2023-02-28T08:37:42;1.30;99.90
4429;DHT22;2227;47.810;8.810;2023-02-28T08:40:09;1.30;99.90
4429;DHT22;2227;47.810;8.810;2023-02-28T08:42:36;1.20;99.90
4429;DHT22;2227;47.810;8.810;2023-02-28T08:45:03;1.00;99.90
4429;DHT22;2227;47.810;8.810;2023-02-28T08:47:30;1.10;99.90
4429;DHT22;2227;47.810;8.810;2023-02-28T08:49:57;1.10;99.90
4429;DHT22;2227;47.810;8.810;2023-02-28T08:52:23;1.20;99.90
4429;DHT22;2227;47.810;8.810;2023-02-28T08:54:50;1.20;99.90
4429;DHT22;2227;47.810;8.810;2023-02-28T08:57:17;1.30;99.90
4429;DHT22;2227;47.810;8.810;2023-02-28T08:59:43;1.40;99.90
4429;DHT22;2227;47.810;8.810;2023-02-28T09:02:13;1.20;99.90
4429;DHT22;2227;47.810;8.810;2023-02-28T09:04:41;1.10;99.90
4429;DHT22;2227;47.810;8.810;2023-02-28T09:07:08;1.20;99.90
4429;DHT22;2227;47.810;8.810;2023-02-28T09:09:34;1.10;99.90
4429;DHT22;2227;47.810;8.810;2023-02-28T09:12:01;1.10;99.90
4429;DHT22;2227;47.810;8.810;2023-02-28T09:14:28;1.20;99.90
4429;DHT22;2227;47.810;8.810;2023-02-28T09:16:55;1.20;99.90
4429;DHT22;2227;47.810;8.810;2023-02-28T09:19:21;1.40;99.90
4429;DHT22;2227;47.810;8.810;2023-02-28T09:21:48;1.60;99.90
4429;DHT22;2227;47.810;8.810;2023-02-28T09:24:15;1.60;99.90
4429;DHT22;2227;47.810;8.810;2023-02-28T09:26:42;1.70;99.90
4429;DHT22;2227;47.810;8.810;2023-02-28T09:29:29;1.60;99.90
4429;DHT22;2227;47.810;8.810;2023-02-28T09:31:56;1.50;99.90
4429;DHT22;2227;47.810;8.810;2023-02-28T09:34:26;1.70;99.90
4429;DHT22;2227;47.810;8.810;2023-02-28T09:36:53;1.70;99.90
4429;DHT22;2227;47.810;8.810;2023-02-28T09:39:22;1.60;99.90
4429;DHT22;2227;47.810;8.810;2023-02-28T09:41:51;1.40;99.90
4429;DHT22;2227;47.810;8.810;2023-02-28T09:49:56;1.00;99.90
4429;DHT22;2227;47.810;8.810;2023-02-28T09:52:29;0.90;99.90
4429;DHT22;2227;47.810;8.810;2023-02-28T09:57:46;1.10;99.90
4429;DHT22;2227;47.810;8.810;2023-02-28T10:00:33;1.20;99.90
4429;DHT22;2227;47.810;8.810;2023-02-28T10:03:27;1.30;99.90
4429;DHT22;2227;47.810;8.810;2023-02-28T10:06:19;1.50;99.90
4429;DHT22;2227;47.810;8.810;2023-02-28T10:11:29;1.60;99.90
4429;DHT22;2227;47.810;8.810;2023-02-28T10:14:15;1.50;99.90
4429;DHT22;2227;47.810;8.810;2023-02-28T10:16:47;1.60;99.90
4429;DHT22;2227;47.810;8.810;2023-02-28T10:19:32;1.50;99.90
4429;DHT22;2227;47.810;8.810;2023-02-28T10:24:49;1.30;99.90
4429;DHT22;2227;47.810;8.810;2023-02-28T10:27:22;1.40;99.90
4429;DHT22;2227;47.810;8.810;2023-02-28T10:35:19;1.10;99.90
4429;DHT22;2227;47.810;8.810;2023-02-28T10:37:54;1.40;99.90
4429;DHT22;2227;47.810;8.810;2023-02-28T10:43:18;1.40;99.90
4429;DHT22;2227;47.810;8.810;2023-02-28T10:45:55;1.00;99.90
4429;DHT22;2227;47.810;8.810;2023-02-28T10:48:42;1.00;99.90
4429;DHT22;2227;47.810;8.810;2023-02-28T10:51:12;1.10;99.90
4429;DHT22;2227;47.810;8.810;2023-02-28T10:53:48;1.00;99.90
4429;DHT22;2227;47.810;8.810;2023-02-28T10:56:27;1.30;99.90
4429;DHT22;2227;47.810;8.810;2023-02-28T10:59:01;1.40;99.90
4429;DHT22;2227;47.810;8.810;2023-02-28T11:03:59;1.50;99.90
4429;DHT22;2227;47.810;8.810;2023-02-28T11:06:29;1.50;99.90
4429;DHT22;2227;47.810;8.810;2023-02-28T11:08:59;1.70;99.90
4429;DHT22;2227;47.810;8.810;2023-02-28T11:11:29;1.80;99.90
4429;DHT22;2227;47.810;8.810;2023-02-28T11:14:04;2.10;99.90
4429;DHT22;2227;47.810;8.810;2023-02-28T11:16:36;2.30;99.90
4429;DHT22;2227;47.810;8.810;2023-02-28T11:19:06;2.20;99.90
4429;DHT22;2227;47.810;8.810;2023-02-28T11:22:22;2.20;99.90
4429;DHT22;2227;47.810;8.810;2023-02-28T11:24:43;2.20;99.90
4429;DHT22;2227;47.810;8.810;2023-02-28T11:29:57;2.30;99.90
4429;DHT22;2227;47.810;8.810;2023-02-28T11:32:25;2.40;99.90
4429;DHT22;2227;47.810;8.810;2023-02-28T11:37:38;2.50;99.90
4429;DHT22;2227;47.810;8.810;2023-02-28T11:40:13;2.40;99.90
4429;DHT22;2227;47.810;8.810;2023-02-28T11:45:45;2.50;99.90
4429;DHT22;2227;47.810;8.810;2023-02-28T11:48:34;2.60;99.90
4429;DHT22;2227;47.810;8.810;2023-02-28T11:51:18;2.40;99.90
4429;DHT22;2227;47.810;8.810;2023-02-28T12:02:20;2.70;99.90
4429;DHT22;2227;47.810;8.810;2023-02-28T12:05:04;2.80;99.90
4429;DHT22;2227;47.810;8.810;2023-02-28T12:10:30;2.80;99.90
4429;DHT22;2227;47.810;8.810;2023-02-28T12:18:53;2.80;99.90
4429;DHT22;2227;47.810;8.810;2023-02-28T12:22:06;2.70;99.90
4429;DHT22;2227;47.810;8.810;2023-02-28T12:24:50;2.80;99.90
4429;DHT22;2227;47.810;8.810;2023-02-28T12:27:22;2.60;99.90
4429;DHT22;2227;47.810;8.810;2023-02-28T12:30:08;2.70;99.90
4429;DHT22;2227;47.810;8.810;2023-02-28T12:32:47;2.40;99.90
4429;DHT22;2227;47.810;8.810;2023-02-28T12:35:19;2.50;99.90
4429;DHT22;2227;47.810;8.810;2023-02-28T12:38:04;2.60;99.90
4429;DHT22;2227;47.810;8.810;2023-02-28T12:41:00;2.80;99.90
4429;DHT22;2227;47.810;8.810;2023-02-28T12:43:37;3.10;99.90
4429;DHT22;2227;47.810;8.810;2023-02-28T12:46:12;3.20;99.90
4429;DHT22;2227;47.810;8.810;2023-02-28T12:48:47;3.30;99.90
4429;DHT22;2227;47.810;8.810;2023-02-28T12:51:16;3.10;99.90
4429;DHT22;2227;47.810;8.810;2023-02-28T12:54:12;3.30;99.90
4429;DHT22;2227;47.810;8.810;2023-02-28T12:56:48;3.10;99.90
4429;DHT22;2227;47.810;8.810;2023-02-28T12:59:27;3.20;99.90
4429;DHT22;2227;47.810;8.810;2023-02-28T13:02:02;2.90;99.90
4429;DHT22;2227;47.810;8.810;2023-02-28T13:10:04;3.30;99.90
4429;DHT22;2227;47.810;8.810;2023-02-28T13:12:34;3.40;99.90
4429;DHT22;2227;47.810;8.810;2023-02-28T13:15:07;3.30;99.90
4429;DHT22;2227;47.810;8.810;2023-02-28T13:17:39;3.30;99.90
4429;DHT22;2227;47.810;8.810;2023-02-28T13:20:46;3.60;99.90
4429;DHT22;2227;47.810;8.810;2023-02-28T13:23:36;3.80;99.90
4429;DHT22;2227;47.810;8.810;2023-02-28T13:26:04;3.70;99.90
4429;DHT22;2227;47.810;8.810;2023-02-28T13:29:01;3.80;99.90
4429;DHT22;2227;47.810;8.810;2023-02-28T13:31:28;3.80;99.90
4429;DHT22;2227;47.810;8.810;2023-02-28T13:39:03;3.20;99.90
4429;DHT22;2227;47.810;8.810;2023-02-28T13:41:49;3.10;99.90
4429;DHT22;2227;47.810;8.810;2023-02-28T13:44:22;3.20;99.90
4429;DHT22;2227;47.810;8.810;2023-02-28T13:51:51;3.60;99.90
4429;DHT22;2227;47.810;8.810;2023-02-28T13:57:20;3.80;99.90
4429;DHT22;2227;47.810;8.810;2023-02-28T14:05:06;3.20;99.90
4429;DHT22;2227;47.810;8.810;2023-02-28T14:07:43;3.10;99.90
4429;DHT22;2227;47.810;8.810;2023-02-28T14:18:02;3.20;99.90
4429;DHT22;2227;47.810;8.810;2023-02-28T14:20:32;3.50;99.90
4429;DHT22;2227;47.810;8.810;2023-02-28T14:28:51;3.60;99.90
4429;DHT22;2227;47.810;8.810;2023-02-28T14:31:29;3.60;99.90
4429;DHT22;2227;47.810;8.810;2023-02-28T14:34:10;3.50;99.90
4429;DHT22;2227;47.810;8.810;2023-02-28T14:36:41;3.60;99.90
4429;DHT22;2227;47.810;8.810;2023-02-28T14:39:15;3.80;99.90
4429;DHT22;2227;47.810;8.810;2023-02-28T14:41:45;3.90;99.90
4429;DHT22;2227;47.810;8.810;2023-02-28T14:44:23;3.50;99.90
4429;DHT22;2227;47.810;8.810;2023-02-28T14:47:00;3.60;99.90
4429;DHT22;2227;47.810;8.810;2023-02-28T14:49:36;3.80;99.90
4429;DHT22;2227;47.810;8.810;2023-02-28T14:52:09;3.90;99.90
4429;DHT22;2227;47.810;8.810;2023-02-28T14:54:39;4.20;99.90
4429;DHT22;2227;47.810;8.810;2023-02-28T14:57:06;4.30;99.90
4429;DHT22;2227;47.810;8.810;2023-02-28T14:59:46;4.40;99.90
4429;DHT22;2227;47.810;8.810;2023-02-28T15:02:23;5.00;99.90
4429;DHT22;2227;47.810;8.810;2023-02-28T15:04:56;5.60;99.90
4429;DHT22;2227;47.810;8.810;2023-02-28T15:07:23;6.20;99.90
4429;DHT22;2227;47.810;8.810;2023-02-28T15:21:06;6.40;99.70
4429;DHT22;2227;47.810;8.810;2023-02-28T15:23:35;6.40;99.90
4429;DHT22;2227;47.810;8.810;2023-02-28T15:26:03;6.30;99.90
4429;DHT22;2227;47.810;8.810;2023-02-28T15:28:30;5.80;99.90
4429;DHT22;2227;47.810;8.810;2023-02-28T15:31:00;5.90;99.90
4429;DHT22;2227;47.810;8.810;2023-02-28T15:33:30;5.80;99.90
4429;DHT22;2227;47.810;8.810;2023-02-28T15:36:30;5.70;99.90
4429;DHT22;2227;47.810;8.810;2023-02-28T15:39:00;5.40;99.90
4429;DHT22;2227;47.810;8.810;2023-02-28T15:41:41;5.50;99.90
4429;DHT22;2227;47.810;8.810;2023-02-28T15:44:24;5.90;99.90
4429;DHT22;2227;47.810;8.810;2023-02-28T15:47:04;6.30;99.90
4429;DHT22;2227;47.810;8.810;2023-02-28T15:49:52;6.60;99.90
4429;DHT22;2227;47.810;8.810;2023-02-28T15:52:38;6.90;98.90
4429;DHT22;2227;47.810;8.810;2023-02-28T15:55:27;6.60;99.30
4429;DHT22;2227;47.810;8.810;2023-02-28T15:57:57;6.50;99.00
4429;DHT22;2227;47.810;8.810;2023-02-28T16:00:28;6.50;99.50
4429;DHT22;2227;47.810;8.810;2023-02-28T16:02:55;6.70;99.10
4429;DHT22;2227;47.810;8.810;2023-02-28T16:08:01;6.90;98.60
4429;DHT22;2227;47.810;8.810;2023-02-28T16:10:33;6.90;98.30
4429;DHT22;2227;47.810;8.810;2023-02-28T16:13:01;6.90;98.20
4429;DHT22;2227;47.810;8.810;2023-02-28T16:15:32;6.90;97.90
4429;DHT22;2227;47.810;8.810;2023-02-28T16:18:01;6.60;98.40
4429;DHT22;2227;47.810;8.810;2023-02-28T16:20:30;6.40;98.90
4429;DHT22;2227;47.810;8.810;2023-02-28T16:22:57;6.20;99.10
4429;DHT22;2227;47.810;8.810;2023-02-28T16:25:34;6.20;99.40
4429;DHT22;2227;47.810;8.810;2023-02-28T16:28:02;6.00;99.70
4429;DHT22;2227;47.810;8.810;2023-02-28T16:30:29;5.90;99.90
4429;DHT22;2227;47.810;8.810;2023-02-28T16:32:59;5.40;99.90
4429;DHT22;2227;47.810;8.810;2023-02-28T16:35:26;5.30;99.90
4429;DHT22;2227;47.810;8.810;2023-02-28T16:37:53;5.20;99.90
4429;DHT22;2227;47.810;8.810;2023-02-28T16:40:22;5.10;99.90
4429;DHT22;2227;47.810;8.810;2023-02-28T16:42:52;5.10;99.90
4429;DHT22;2227;47.810;8.810;2023-02-28T16:45:27;5.10;99.90
4429;DHT22;2227;47.810;8.810;2023-02-28T16:47:55;4.90;99.90
4429;DHT22;2227;47.810;8.810;2023-02-28T16:50:24;4.80;99.90
4429;DHT22;2227;47.810;8.810;2023-02-28T16:52:51;4.60;99.90
4429;DHT22;2227;47.810;8.810;2023-02-28T16:55:18;4.50;99.90
4429;DHT22;2227;47.810;8.810;2023-02-28T16:57:51;4.30;99.90
4429;DHT22;2227;47.810;8.810;2023-02-28T17:00:18;4.20;99.90
4429;DHT22;2227;47.810;8.810;2023-02-28T17:02:45;4.00;99.90
4429;DHT22;2227;47.810;8.810;2023-02-28T17:05:13;3.80;99.90
4429;DHT22;2227;47.810;8.810;2023-02-28T17:07:42;3.70;99.90
4429;DHT22;2227;47.810;8.810;2023-02-28T17:10:18;3.60;99.90
4429;DHT22;2227;47.810;8.810;2023-02-28T17:12:45;3.50;99.90
4429;DHT22;2227;47.810;8.810;2023-02-28T17:15:13;3.50;99.90
4429;DHT22;2227;47.810;8.810;2023-02-28T17:17:41;3.40;99.90
4429;DHT22;2227;47.810;8.810;2023-02-28T17:20:15;3.30;99.90
4429;DHT22;2227;47.810;8.810;2023-02-28T17:22:42;3.10;99.90
4429;DHT22;2227;47.810;8.810;2023-02-28T17:25:10;3.20;99.90
4429;DHT22;2227;47.810;8.810;2023-02-28T17:27:37;3.10;99.90
4429;DHT22;2227;47.810;8.810;2023-02-28T17:32:42;3.00;99.90
4429;DHT22;2227;47.810;8.810;2023-02-28T17:35:09;3.00;99.90
4429;DHT22;2227;47.810;8.810;2023-02-28T17:37:36;3.10;99.90
4429;DHT22;2227;47.810;8.810;2023-02-28T17:40:04;2.90;99.90
4429;DHT22;2227;47.810;8.810;2023-02-28T17:42:30;2.90;99.90
4429;DHT22;2227;47.810;8.810;2023-02-28T17:44:57;2.90;99.90
4429;DHT22;2227;47.810;8.810;2023-02-28T17:47:24;2.90;99.90
4429;DHT22;2227;47.810;8.810;2023-02-28T17:49:51;2.80;99.90
4429;DHT22;2227;47.810;8.810;2023-02-28T17:52:17;2.70;99.90
4429;DHT22;2227;47.810;8.810;2023-02-28T17:54:44;2.60;99.90
4429;DHT22;2227;47.810;8.810;2023-02-28T17:57:14;2.60;99.90
4429;DHT22;2227;47.810;8.810;2023-02-28T17:59:42;2.40;99.90
4429;DHT22;2227;47.810;8.810;2023-02-28T18:02:12;2.30;99.90
4429;DHT22;2227;47.810;8.810;2023-02-28T18:04:39;2.30;99.90
4429;DHT22;2227;47.810;8.810;2023-02-28T18:07:08;2.20;99.90
4429;DHT22;2227;47.810;8.810;2023-02-28T18:09:35;2.10;99.90
4429;DHT22;2227;47.810;8.810;2023-02-28T18:12:02;2.10;99.90
4429;DHT22;2227;47.810;8.810;2023-02-28T18:14:28;2.00;99.90
4429;DHT22;2227;47.810;8.810;2023-02-28T18:16:55;1.80;99.90
4429;DHT22;2227;47.810;8.810;2023-02-28T18:19:23;1.90;99.90
4429;DHT22;2227;47.810;8.810;2023-02-28T18:21:51;1.80;99.90
4429;DHT22;2227;47.810;8.810;2023-02-28T18:24:19;1.80;99.90
4429;DHT22;2227;47.810;8.810;2023-02-28T18:26:46;1.80;99.90
4429;DHT22;2227;47.810;8.810;2023-02-28T18:29:19;1.70;99.90
4429;DHT22;2227;47.810;8.810;2023-02-28T18:31:47;1.80;99.90
4429;DHT22;2227;47.810;8.810;2023-02-28T18:34:14;1.80;99.90
4429;DHT22;2227;47.810;8.810;2023-02-28T18:36:41;1.70;99.90
4429;DHT22;2227;47.810;8.810;2023-02-28T18:39:09;1.70;99.90
4429;DHT22;2227;47.810;8.810;2023-02-28T18:41:38;1.60;99.90
4429;DHT22;2227;47.810;8.810;2023-02-28T18:44:05;1.50;99.90
4429;DHT22;2227;47.810;8.810;2023-02-28T18:46:45;1.50;99.90
4429;DHT22;2227;47.810;8.810;2023-02-28T18:49:12;1.40;99.90
4429;DHT22;2227;47.810;8.810;2023-02-28T18:51:38;1.40;99.90
4429;DHT22;2227;47.810;8.810;2023-02-28T18:54:05;1.30;99.90
4429;DHT22;2227;47.810;8.810;2023-02-28T18:56:32;1.40;99.90
4429;DHT22;2227;47.810;8.810;2023-02-28T18:58:59;1.30;99.90
4429;DHT22;2227;47.810;8.810;2023-02-28T19:01:27;1.40;99.90
4429;DHT22;2227;47.810;8.810;2023-02-28T19:03:57;1.30;99.90
4429;DHT22;2227;47.810;8.810;2023-02-28T19:06:27;1.40;99.90
4429;DHT22;2227;47.810;8.810;2023-02-28T19:09:00;1.40;99.90
4429;DHT22;2227;47.810;8.810;2023-02-28T19:11:29;1.30;99.90
4429;DHT22;2227;47.810;8.810;2023-02-28T19:13:56;1.30;99.90
4429;DHT22;2227;47.810;8.810;2023-02-28T19:16:23;1.10;99.90
4429;DHT22;2227;47.810;8.810;2023-02-28T19:18:50;1.20;99.90
4429;DHT22;2227;47.810;8.810;2023-02-28T19:21:19;1.10;99.90
4429;DHT22;2227;47.810;8.810;2023-02-28T19:23:46;1.20;99.90
4429;DHT22;2227;47.810;8.810;2023-02-28T19:26:17;1.20;99.90
4429;DHT22;2227;47.810;8.810;2023-02-28T19:28:45;1.20;99.90
4429;DHT22;2227;47.810;8.810;2023-02-28T19:31:17;1.10;99.90
4429;DHT22;2227;47.810;8.810;2023-02-28T19:33:45;0.90;99.90
4429;DHT22;2227;47.810;8.810;2023-02-28T19:36:13;0.90;99.90
4429;DHT22;2227;47.810;8.810;2023-02-28T19:38:41;0.80;99.90
4429;DHT22;2227;47.810;8.810;2023-02-28T19:41:11;0.70;99.90
4429;DHT22;2227;47.810;8.810;2023-02-28T19:43:38;0.70;99.90
4429;DHT22;2227;47.810;8.810;2023-02-28T19:46:06;0.60;99.90
4429;DHT22;2227;47.810;8.810;2023-02-28T19:48:33;0.50;99.90
4429;DHT22;2227;47.810;8.810;2023-02-28T19:51:02;0.40;99.90
4429;DHT22;2227;47.810;8.810;2023-02-28T19:53:30;0.50;99.90
4429;DHT22;2227;47.810;8.810;2023-02-28T19:55:57;0.60;99.90
4429;DHT22;2227;47.810;8.810;2023-02-28T19:58:26;0.50;99.90
4429;DHT22;2227;47.810;8.810;2023-02-28T20:00:53;0.60;99.90
4429;DHT22;2227;47.810;8.810;2023-02-28T20:03:20;0.40;99.90
4429;DHT22;2227;47.810;8.810;2023-02-28T20:05:58;0.50;99.90
4429;DHT22;2227;47.810;8.810;2023-02-28T20:08:25;0.60;99.90
4429;DHT22;2227;47.810;8.810;2023-02-28T20:10:52;0.50;99.90
4429;DHT22;2227;47.810;8.810;2023-02-28T20:13:19;0.40;99.90
4429;DHT22;2227;47.810;8.810;2023-02-28T20:15:51;0.40;99.90
4429;DHT22;2227;47.810;8.810;2023-02-28T20:18:17;0.40;99.90
4429;DHT22;2227;47.810;8.810;2023-02-28T20:20:44;0.50;99.90
4429;DHT22;2227;47.810;8.810;2023-02-28T20:23:11;0.40;99.90
4429;DHT22;2227;47.810;8.810;2023-02-28T20:25:38;0.50;99.90
4429;DHT22;2227;47.810;8.810;2023-02-28T20:28:06;0.40;99.90
4429;DHT22;2227;47.810;8.810;2023-02-28T20:30:32;0.40;99.90
4429;DHT22;2227;47.810;8.810;2023-02-28T20:32:59;0.50;99.90
4429;DHT22;2227;47.810;8.810;2023-02-28T20:35:26;0.40;99.90
4429;DHT22;2227;47.810;8.810;2023-02-28T20:37:53;0.50;99.90
4429;DHT22;2227;47.810;8.810;2023-02-28T20:40:20;0.50;99.90
4429;DHT22;2227;47.810;8.810;2023-02-28T20:42:46;0.40;99.90
4429;DHT22;2227;47.810;8.810;2023-02-28T20:45:13;0.30;99.90
4429;DHT22;2227;47.810;8.810;2023-02-28T20:47:40;0.30;99.90
4429;DHT22;2227;47.810;8.810;2023-02-28T20:50:09;0.40;99.90
4429;DHT22;2227;47.810;8.810;2023-02-28T20:52:36;0.40;99.90
4429;DHT22;2227;47.810;8.810;2023-02-28T20:55:04;0.40;99.90
4429;DHT22;2227;47.810;8.810;2023-02-28T20:57:30;0.30;99.90
4429;DHT22;2227;47.810;8.810;2023-02-28T20:59:57;0.40;99.90
4429;DHT22;2227;47.810;8.810;2023-02-28T21:02:24;0.40;99.90
4429;DHT22;2227;47.810;8.810;2023-02-28T21:04:51;0.40;99.90
4429;DHT22;2227;47.810;8.810;2023-02-28T21:07:18;0.50;99.90
4429;DHT22;2227;47.810;8.810;2023-02-28T21:09:45;0.50;99.90
4429;DHT22;2227;47.810;8.810;2023-02-28T21:12:11;0.60;99.90
4429;DHT22;2227;47.810;8.810;2023-02-28T21:14:38;0.50;99.90
4429;DHT22;2227;47.810;8.810;2023-02-28T21:17:05;0.50;99.90
4429;DHT22;2227;47.810;8.810;2023-02-28T21:19:34;0.40;99.90
4429;DHT22;2227;47.810;8.810;2023-02-28T21:22:01;0.40;99.90
4429;DHT22;2227;47.810;8.810;2023-02-28T21:24:27;0.50;99.90
4429;DHT22;2227;47.810;8.810;2023-02-28T21:26:54;0.60;99.90
4429;DHT22;2227;47.810;8.810;2023-02-28T21:29:22;0.40;99.90
4429;DHT22;2227;47.810;8.810;2023-02-28T21:31:50;0.40;99.90
4429;DHT22;2227;47.810;8.810;2023-02-28T21:34:20;0.40;99.90
4429;DHT22;2227;47.810;8.810;2023-02-28T21:36:46;0.50;99.90
4429;DHT22;2227;47.810;8.810;2023-02-28T21:39:16;0.40;99.90
4429;DHT22;2227;47.810;8.810;2023-02-28T21:41:43;0.40;99.90
4429;DHT22;2227;47.810;8.810;2023-02-28T21:44:11;0.30;99.90
4429;DHT22;2227;47.810;8.810;2023-02-28T21:46:45;0.30;99.90
4429;DHT22;2227;47.810;8.810;2023-02-28T21:49:13;0.30;99.90
4429;DHT22;2227;47.810;8.810;2023-02-28T21:51:40;0.30;99.90
4429;DHT22;2227;47.810;8.810;2023-02-28T21:54:09;0.30;99.90
4429;DHT22;2227;47.810;8.810;2023-02-28T21:56:36;0.30;99.90
4429;DHT22;2227;47.810;8.810;2023-02-28T21:59:03;0.30;99.90
4429;DHT22;2227;47.810;8.810;2023-02-28T22:01:32;0.40;99.90
4429;DHT22;2227;47.810;8.810;2023-02-28T22:04:01;0.40;99.90
4429;DHT22;2227;47.810;8.810;2023-02-28T22:06:30;0.30;99.90
4429;DHT22;2227;47.810;8.810;2023-02-28T22:08:59;0.40;99.90
4429;DHT22;2227;47.810;8.810;2023-02-28T22:11:27;0.50;99.90
4429;DHT22;2227;47.810;8.810;2023-02-28T22:13:56;0.50;99.90
4429;DHT22;2227;47.810;8.810;2023-02-28T22:16:25;0.50;99.90
4429;DHT22;2227;47.810;8.810;2023-02-28T22:18:55;0.60;99.90
4429;DHT22;2227;47.810;8.810;2023-02-28T22:21:22;0.60;99.90
4429;DHT22;2227;47.810;8.810;2023-02-28T22:23:49;0.70;99.90
4429;DHT22;2227;47.810;8.810;2023-02-28T22:26:18;0.70;99.90
4429;DHT22;2227;47.810;8.810;2023-02-28T22:28:45;0.70;99.90
4429;DHT22;2227;47.810;8.810;2023-02-28T22:31:26;0.80;99.90
4429;DHT22;2227;47.810;8.810;2023-02-28T22:33:55;0.90;99.90
4429;DHT22;2227;47.810;8.810;2023-02-28T22:36:23;1.00;99.90
4429;DHT22;2227;47.810;8.810;2023-02-28T22:38:51;1.00;99.90
4429;DHT22;2227;47.810;8.810;2023-02-28T22:41:20;0.90;99.90
4429;DHT22;2227;47.810;8.810;2023-02-28T22:43:52;1.00;99.90
4429;DHT22;2227;47.810;8.810;2023-02-28T22:46:21;1.10;99.90
4429;DHT22;2227;47.810;8.810;2023-02-28T22:48:48;1.20;99.90
4429;DHT22;2227;47.810;8.810;2023-02-28T22:51:18;1.30;99.90
4429;DHT22;2227;47.810;8.810;2023-02-28T22:53:46;1.50;99.90
4429;DHT22;2227;47.810;8.810;2023-02-28T22:56:16;1.40;99.90
4429;DHT22;2227;47.810;8.810;2023-02-28T22:58:43;1.50;99.90
4429;DHT22;2227;47.810;8.810;2023-02-28T23:01:15;1.60;99.90
4429;DHT22;2227;47.810;8.810;2023-02-28T23:03:42;1.60;99.90
4429;DHT22;2227;47.810;8.810;2023-02-28T23:06:16;1.70;99.90